Time;durP1;ratioP1;P1;durP2;ratioP2;P2;SDS_P1;SDS_P2;PMS_P1;PMS_P2;Temp;Humidity;BMP_temperature;BMP_pressure;BME280_temperature;BME280_humidity;BME280_pressure;Samples;Min_cycle;Max_cycle;Signal;HPM_P1;HPM_P2
2023/11/18 00:00:20;;;;;;;106.50;29.33;;;4.20;99.90;;;;;;5046299;28;20037;-58
2023/11/18 00:02:46;;;;;;;105.63;31.17;;;4.30;99.90;;;;;;5047491;28;20664;-58
2023/11/18 00:05:13;;;;;;;85.78;28.10;;;4.30;99.90;;;;;;5044732;28;20029;-57
2023/11/18 00:07:39;;;;;;;112.25;31.02;;;4.40;99.90;;;;;;5045284;28;20411;-58
2023/11/18 00:10:06;;;;;;;83.80;26.98;;;4.40;99.90;;;;;;5048649;28;20032;-58
2023/11/18 00:12:34;;;;;;;104.00;29.33;;;4.50;99.90;;;;;;5050029;28;20025;-59
2023/11/18 00:15:03;;;;;;;110.80;30.70;;;4.50;99.90;;;;;;5049924;28;20032;-58
2023/11/18 00:17:29;;;;;;;115.47;32.05;;;4.50;99.90;;;;;;5047597;28;20025;-57
2023/11/18 00:19:55;;;;;;;121.10;31.15;;;4.50;99.90;;;;;;5052623;28;20043;-56
2023/11/18 00:22:21;;;;;;;95.55;30.90;;;4.50;99.90;;;;;;5047967;28;20020;-58
2023/11/18 00:24:46;;;;;;;106.28;30.92;;;4.60;99.90;;;;;;5045773;28;20099;-59
2023/11/18 00:27:14;;;;;;;119.78;30.98;;;4.60;99.90;;;;;;5051420;28;20061;-56
2023/11/18 00:29:41;;;;;;;123.38;32.10;;;4.70;99.90;;;;;;5055131;28;20032;-57
2023/11/18 00:32:07;;;;;;;134.82;32.25;;;4.70;99.90;;;;;;5049921;28;20021;-58
2023/11/18 00:34:33;;;;;;;115.97;28.95;;;4.70;99.90;;;;;;5049216;28;20044;-59
2023/11/18 00:36:59;;;;;;;117.85;29.95;;;4.70;99.90;;;;;;5047817;28;20083;-60
2023/11/18 00:39:25;;;;;;;125.07;31.15;;;4.70;99.90;;;;;;5048236;28;20437;-61
2023/11/18 00:41:51;;;;;;;117.38;29.63;;;4.70;99.90;;;;;;5048457;28;20044;-57
2023/11/18 00:44:17;;;;;;;114.70;31.98;;;4.80;99.90;;;;;;5051042;28;20032;-59
2023/11/18 00:46:43;;;;;;;136.65;34.25;;;4.70;99.90;;;;;;5050483;28;20026;-61
2023/11/18 00:49:10;;;;;;;133.55;30.40;;;4.80;99.90;;;;;;5047598;28;20021;-54
2023/11/18 00:51:37;;;;;;;140.68;31.40;;;4.80;99.90;;;;;;5048726;28;20036;-53
2023/11/18 00:54:05;;;;;;;132.63;31.90;;;4.80;99.90;;;;;;5049832;28;20100;-59
2023/11/18 00:56:34;;;;;;;155.10;32.85;;;4.80;99.90;;;;;;5051274;28;20021;-59
2023/11/18 00:59:03;;;;;;;136.23;34.15;;;4.90;99.90;;;;;;5047686;28;20021;-57
2023/11/18 01:01:28;;;;;;;163.60;34.22;;;4.90;99.90;;;;;;5045775;28;20025;-58
2023/11/18 01:03:54;;;;;;;142.00;33.25;;;4.90;99.90;;;;;;5047870;28;20063;-59
2023/11/18 01:06:19;;;;;;;164.18;35.45;;;4.90;99.90;;;;;;5048096;28;20024;-59
2023/11/18 01:08:48;;;;;;;149.05;34.25;;;5.00;99.90;;;;;;5045126;28;20026;-57
2023/11/18 01:11:20;;;;;;;155.13;32.75;;;5.00;99.90;;;;;;5045918;28;20017;-60
2023/11/18 01:13:54;;;;;;;169.57;35.58;;;5.00;99.90;;;;;;5047887;28;20040;-59
2023/11/18 01:16:20;;;;;;;;;;;5.10;99.90;;;;;;5047760;28;20036;-57
2023/11/18 01:18:46;;;;;;;154.05;33.78;;;5.10;99.90;;;;;;5044315;28;19917;-59
2023/11/18 01:21:11;;;;;;;166.38;34.72;;;5.20;99.90;;;;;;5048109;28;20032;-57
2023/11/18 01:23:38;;;;;;;162.98;38.47;;;5.10;99.90;;;;;;5048020;28;20120;-57
2023/11/18 01:26:08;;;;;;;178.07;34.92;;;5.10;99.90;;;;;;5048729;28;20117;-58
2023/11/18 01:28:37;;;;;;;169.75;37.47;;;5.10;99.90;;;;;;5047450;28;20029;-57
2023/11/18 01:31:09;;;;;;;173.95;37.08;;;5.20;99.90;;;;;;5053180;28;20496;-62
2023/11/18 01:33:37;;;;;;;166.15;36.78;;;5.20;99.90;;;;;;5044486;28;20040;-58
2023/11/18 01:36:03;;;;;;;173.02;38.08;;;5.20;99.90;;;;;;5043714;28;20028;-58
2023/11/18 01:38:30;;;;;;;181.15;37.78;;;5.20;99.90;;;;;;5049725;28;20024;-57
2023/11/18 01:40:56;;;;;;;163.93;37.45;;;5.10;99.90;;;;;;5050942;28;20017;-54
2023/11/18 01:43:22;;;;;;;153.75;35.28;;;5.10;99.90;;;;;;5048153;28;20028;-60
2023/11/18 01:45:48;;;;;;;165.93;37.08;;;5.10;99.90;;;;;;5042937;28;20552;-59
2023/11/18 01:48:15;;;;;;;174.48;37.72;;;5.20;99.90;;;;;;5045328;28;20017;-55
2023/11/18 01:50:42;;;;;;;148.35;34.22;;;5.20;99.90;;;;;;5046501;28;20024;-53
2023/11/18 01:53:10;;;;;;;155.07;37.17;;;5.20;99.90;;;;;;5045335;28;20014;-61
2023/11/18 01:55:36;;;;;;;146.82;37.05;;;5.30;99.90;;;;;;5048991;28;20021;-60
2023/11/18 01:58:07;;;;;;;152.38;37.10;;;5.30;99.90;;;;;;5047937;28;20047;-58
2023/11/18 02:00:36;;;;;;;143.80;35.75;;;5.20;99.90;;;;;;5046017;28;20068;-60
2023/11/18 02:03:01;;;;;;;150.35;36.08;;;5.30;99.90;;;;;;5046563;28;20029;-58
2023/11/18 02:05:27;;;;;;;144.80;37.33;;;5.30;99.90;;;;;;5050270;28;20040;-57
2023/11/18 02:07:53;;;;;;;140.65;35.03;;;5.30;99.90;;;;;;5044239;28;20103;-56
2023/11/18 02:10:18;;;;;;;154.43;36.83;;;5.30;99.90;;;;;;5047145;28;20021;-59
2023/11/18 02:13:15;;;;;;;148.38;37.47;;;5.20;99.90;;;;;;5053224;28;20549;-59
2023/11/18 02:15:41;;;;;;;138.20;33.58;;;5.30;99.90;;;;;;5048429;28;20017;-60
2023/11/18 02:18:09;;;;;;;129.52;33.92;;;5.30;99.90;;;;;;5046793;28;20027;-59
2023/11/18 02:20:35;;;;;;;144.50;35.53;;;5.40;99.90;;;;;;5046800;28;20211;-61
2023/11/18 02:23:02;;;;;;;134.25;35.30;;;5.30;99.90;;;;;;5052689;28;20052;-60
2023/11/18 02:25:29;;;;;;;147.50;34.35;;;5.30;99.90;;;;;;5046907;28;20028;-61
2023/11/18 02:27:54;;;;;;;130.48;35.33;;;5.30;99.90;;;;;;5050183;28;20057;-58
2023/11/18 02:30:20;;;;;;;133.35;35.28;;;5.20;99.90;;;;;;5046647;28;20057;-57
2023/11/18 02:32:58;;;;;;;125.00;31.63;;;5.20;99.90;;;;;;5056504;28;20121;-59
2023/11/18 02:35:30;;;;;;;128.50;32.55;;;5.30;99.90;;;;;;5050537;28;20045;-60
2023/11/18 02:37:58;;;;;;;119.15;32.13;;;5.30;99.90;;;;;;5052003;28;20390;-59
2023/11/18 02:40:34;;;;;;;117.05;33.03;;;5.20;99.90;;;;;;5049452;28;20033;-62
2023/11/18 02:43:04;;;;;;;125.22;32.53;;;5.20;99.90;;;;;;5056100;28;20040;-59
2023/11/18 02:45:31;;;;;;;104.50;31.10;;;5.20;99.90;;;;;;5053617;28;20028;-62
2023/11/18 02:47:57;;;;;;;110.82;30.48;;;5.20;99.90;;;;;;5056053;28;20155;-59
2023/11/18 02:50:24;;;;;;;98.03;30.50;;;5.20;99.90;;;;;;5051582;28;20148;-58
2023/11/18 02:52:50;;;;;;;106.65;29.58;;;5.20;99.90;;;;;;5051094;28;20083;-56
2023/11/18 02:55:15;;;;;;;109.53;30.98;;;5.20;99.90;;;;;;5052880;28;20549;-55
2023/11/18 02:57:41;;;;;;;105.70;31.27;;;5.20;99.90;;;;;;5048589;28;20036;-60
2023/11/18 03:00:11;;;;;;;104.47;29.38;;;5.20;99.90;;;;;;5049599;28;20047;-61
2023/11/18 03:02:39;;;;;;;109.80;31.08;;;5.20;99.90;;;;;;5049359;28;20078;-60
2023/11/18 03:05:07;;;;;;;102.55;31.13;;;5.20;99.90;;;;;;5044109;28;20032;-60
2023/11/18 03:07:32;;;;;;;100.88;30.52;;;5.20;99.90;;;;;;5047078;28;20528;-60
2023/11/18 03:09:59;;;;;;;102.78;30.65;;;5.20;99.90;;;;;;5055159;28;20071;-59
2023/11/18 03:12:28;;;;;;;104.60;29.90;;;5.20;99.90;;;;;;5047198;28;20090;-58
2023/11/18 03:14:54;;;;;;;99.60;30.77;;;5.10;99.90;;;;;;5051424;28;20019;-61
2023/11/18 03:17:20;;;;;;;111.32;32.08;;;5.10;99.90;;;;;;5051068;28;20574;-59
2023/11/18 03:19:45;;;;;;;113.60;35.72;;;5.10;99.90;;;;;;5050454;28;20071;-58
2023/11/18 03:22:13;;;;;;;97.22;28.60;;;5.10;99.90;;;;;;5050619;28;20499;-58
2023/11/18 03:24:38;;;;;;;99.82;30.75;;;5.20;99.90;;;;;;5051849;28;20044;-59
2023/11/18 03:27:04;;;;;;;86.47;27.60;;;5.20;99.90;;;;;;5048523;28;20083;-56
2023/11/18 03:29:30;;;;;;;92.70;30.58;;;5.10;99.90;;;;;;5050946;28;20522;-58
2023/11/18 03:31:55;;;;;;;94.50;29.70;;;5.10;99.90;;;;;;5048334;28;20051;-58
2023/11/18 03:34:21;;;;;;;92.10;29.40;;;5.10;99.90;;;;;;5048257;28;20033;-60
2023/11/18 03:36:47;;;;;;;91.22;28.20;;;5.10;99.90;;;;;;5047748;28;20390;-60
2023/11/18 03:39:14;;;;;;;102.65;29.25;;;5.10;99.90;;;;;;5047729;28;20021;-59
2023/11/18 03:41:44;;;;;;;95.32;29.33;;;5.10;99.90;;;;;;5047513;28;20078;-59
2023/11/18 03:44:11;;;;;;;95.55;29.52;;;5.10;99.90;;;;;;5051705;28;20556;-59
2023/11/18 03:46:37;;;;;;;97.45;29.00;;;5.00;99.90;;;;;;5049287;28;20621;-58
2023/11/18 03:49:03;;;;;;;95.68;27.60;;;5.10;99.90;;;;;;5049313;28;20107;-59
2023/11/18 03:51:29;;;;;;;95.25;30.92;;;5.00;99.90;;;;;;5047008;28;20441;-58
2023/11/18 03:53:54;;;;;;;94.65;28.65;;;5.00;99.90;;;;;;5050878;28;20029;-58
2023/11/18 03:56:20;;;;;;;101.22;28.88;;;5.00;99.90;;;;;;5049916;28;20033;-61
2023/11/18 03:58:49;;;;;;;98.28;29.55;;;5.00;99.90;;;;;;5050551;28;20025;-57
2023/11/18 04:01:28;;;;;;;95.18;29.70;;;5.00;99.90;;;;;;5048915;28;20041;-60
2023/11/18 04:03:54;;;;;;;87.80;29.77;;;5.00;99.90;;;;;;5047606;28;20031;-57
2023/11/18 04:06:21;;;;;;;92.20;28.75;;;5.00;99.90;;;;;;5045545;28;20028;-59
2023/11/18 04:08:47;;;;;;;83.00;26.10;;;5.00;99.90;;;;;;5047773;28;20025;-58
2023/11/18 04:11:14;;;;;;;86.10;25.80;;;4.90;99.90;;;;;;5050793;28;20045;-59
2023/11/18 04:13:43;;;;;;;88.10;26.65;;;5.00;99.90;;;;;;5046319;28;20855;-55
2023/11/18 04:16:13;;;;;;;83.72;26.40;;;4.90;99.90;;;;;;5046054;28;20042;-59
2023/11/18 04:18:40;;;;;;;100.45;27.33;;;4.90;99.90;;;;;;5048071;28;20158;-59
2023/11/18 04:21:08;;;;;;;92.43;27.25;;;5.00;99.90;;;;;;5047939;28;20108;-59
2023/11/18 04:23:37;;;;;;;80.35;27.45;;;4.90;99.90;;;;;;5049954;28;20036;-60
2023/11/18 04:26:04;;;;;;;86.60;27.63;;;4.80;99.90;;;;;;5043806;28;20032;-58
2023/11/18 04:28:30;;;;;;;91.50;29.08;;;4.80;99.90;;;;;;5050264;28;20025;-57
2023/11/18 04:30:56;;;;;;;85.00;26.30;;;4.80;99.90;;;;;;5046132;28;20135;-59
2023/11/18 04:33:21;;;;;;;94.25;28.75;;;4.80;99.90;;;;;;5048334;28;20029;-61
2023/11/18 04:35:47;;;;;;;84.78;26.42;;;4.80;99.90;;;;;;5048969;28;20028;-60
2023/11/18 04:38:13;;;;;;;90.93;27.45;;;4.80;99.90;;;;;;5046552;28;20028;-58
2023/11/18 04:40:40;;;;;;;92.95;29.73;;;4.80;99.90;;;;;;5048121;28;20480;-57
2023/11/18 04:43:06;;;;;;;77.45;25.95;;;4.80;99.90;;;;;;5050609;28;20074;-59
2023/11/18 04:45:32;;;;;;;81.70;27.35;;;4.80;99.90;;;;;;5047936;28;20021;-60
2023/11/18 04:47:59;;;;;;;87.78;26.33;;;4.90;99.90;;;;;;5047442;28;20083;-58
2023/11/18 04:50:24;;;;;;;84.35;28.52;;;4.90;99.90;;;;;;5047375;28;20040;-60
2023/11/18 04:52:50;;;;;;;83.63;27.05;;;4.80;99.90;;;;;;5049931;28;20017;-59
2023/11/18 04:55:16;;;;;;;79.65;26.35;;;4.90;99.90;;;;;;5049915;28;20013;-59
2023/11/18 04:57:41;;;;;;;79.00;27.90;;;5.00;99.90;;;;;;5048620;28;20013;-56
2023/11/18 05:00:10;;;;;;;85.63;27.90;;;4.90;99.90;;;;;;5048964;28;20506;-54
2023/11/18 05:02:40;;;;;;;85.93;27.65;;;5.00;99.90;;;;;;5047213;28;20108;-60
2023/11/18 05:05:06;;;;;;;78.38;25.98;;;4.90;99.90;;;;;;5046112;28;20467;-57
2023/11/18 05:07:32;;;;;;;85.22;26.65;;;4.90;99.90;;;;;;5047401;28;20029;-61
2023/11/18 05:09:57;;;;;;;81.95;25.70;;;4.90;99.90;;;;;;5050847;28;20491;-60
2023/11/18 05:12:23;;;;;;;84.75;27.67;;;5.00;99.90;;;;;;5049135;28;20079;-58
2023/11/18 05:14:51;;;;;;;81.28;25.52;;;5.00;99.90;;;;;;5051278;28;20021;-57
2023/11/18 05:17:17;;;;;;;82.95;28.17;;;5.00;99.90;;;;;;5045809;28;20087;-59
2023/11/18 05:19:43;;;;;;;95.45;27.65;;;5.00;99.90;;;;;;5046445;28;20029;-61
2023/11/18 05:22:09;;;;;;;83.63;26.50;;;4.90;99.90;;;;;;5047733;28;20383;-60
2023/11/18 05:24:35;;;;;;;85.22;27.23;;;4.90;99.90;;;;;;5047615;28;20399;-60
2023/11/18 05:27:01;;;;;;;73.88;25.67;;;4.80;99.90;;;;;;5047881;28;20028;-61
2023/11/18 05:29:27;;;;;;;88.38;26.83;;;4.80;99.90;;;;;;5044053;28;20495;-58
2023/11/18 05:31:54;;;;;;;77.53;26.55;;;4.90;99.90;;;;;;5046862;28;20026;-60
2023/11/18 05:34:20;;;;;;;75.78;27.73;;;4.90;99.90;;;;;;5048715;28;20503;-60
2023/11/18 05:36:46;;;;;;;81.63;26.40;;;4.90;99.90;;;;;;5048103;28;20046;-60
2023/11/18 05:39:14;;;;;;;93.22;27.73;;;5.00;99.90;;;;;;5044442;28;20484;-58
2023/11/18 05:41:40;;;;;;;77.47;25.73;;;5.00;99.90;;;;;;5048814;28;20033;-59
2023/11/18 05:44:09;;;;;;;80.70;28.05;;;5.00;99.90;;;;;;5048951;28;20642;-60
2023/11/18 05:46:35;;;;;;;75.10;26.77;;;5.00;99.90;;;;;;5045245;28;20033;-55
2023/11/18 05:49:07;;;;;;;88.72;27.08;;;5.10;99.90;;;;;;5045107;28;20151;-59
2023/11/18 05:51:33;;;;;;;81.93;27.02;;;5.00;99.90;;;;;;5048479;28;20021;-60
2023/11/18 05:53:58;;;;;;;85.60;28.05;;;5.10;99.90;;;;;;5049290;28;20502;-59
2023/11/18 05:56:25;;;;;;;89.13;27.65;;;5.10;99.90;;;;;;5047322;28;20075;-57
2023/11/18 05:58:53;;;;;;;83.18;26.65;;;5.20;99.90;;;;;;5045204;28;20029;-60
2023/11/18 06:01:18;;;;;;;77.85;26.60;;;5.20;99.90;;;;;;5044836;28;20033;-61
2023/11/18 06:03:45;;;;;;;91.20;28.20;;;5.20;99.90;;;;;;5051045;28;20402;-61
2023/11/18 06:06:13;;;;;;;88.30;29.25;;;5.30;99.90;;;;;;5048070;28;20021;-61
2023/11/18 06:08:41;;;;;;;103.40;28.13;;;5.30;99.90;;;;;;5046252;28;20036;-57
2023/11/18 06:11:14;;;;;;;91.50;28.42;;;5.30;99.90;;;;;;5051785;28;20543;-61
2023/11/18 06:13:44;;;;;;;90.30;27.15;;;5.30;99.90;;;;;;5048809;28;20032;-59
2023/11/18 06:16:14;;;;;;;85.70;26.67;;;5.30;99.90;;;;;;5048071;28;20021;-59
2023/11/18 06:18:42;;;;;;;80.95;26.98;;;5.40;99.90;;;;;;5049809;28;20368;-60
2023/11/18 06:21:09;;;;;;;81.35;27.58;;;5.40;99.90;;;;;;5050486;28;20021;-61
2023/11/18 06:23:35;;;;;;;82.30;27.23;;;5.40;99.90;;;;;;5051984;28;20051;-61
2023/11/18 06:26:01;;;;;;;80.32;26.90;;;5.40;99.90;;;;;;5041498;28;20025;-57
2023/11/18 06:28:28;;;;;;;85.38;28.90;;;5.40;99.90;;;;;;5052140;28;20364;-57
2023/11/18 06:30:53;;;;;;;89.57;29.40;;;5.40;99.90;;;;;;5050503;28;20040;-59
2023/11/18 06:33:22;;;;;;;81.38;24.95;;;5.40;99.90;;;;;;5050238;28;20133;-56
2023/11/18 06:35:48;;;;;;;80.10;25.27;;;5.50;99.90;;;;;;5048121;28;20479;-58
2023/11/18 06:38:15;;;;;;;80.40;25.67;;;5.40;99.90;;;;;;5044796;28;20036;-57
2023/11/18 06:40:40;;;;;;;79.35;27.05;;;5.50;99.90;;;;;;5042783;28;20033;-60
2023/11/18 06:43:10;;;;;;;70.88;24.02;;;5.50;99.90;;;;;;5045742;28;21355;-58
2023/11/18 06:45:37;;;;;;;101.28;26.30;;;5.50;99.90;;;;;;5048598;28;20030;-60
2023/11/18 06:48:05;;;;;;;72.15;25.20;;;5.50;99.90;;;;;;5049287;28;20091;-58
2023/11/18 06:50:31;;;;;;;73.10;26.35;;;5.50;99.90;;;;;;5045204;28;20372;-60
2023/11/18 06:52:58;;;;;;;65.65;23.98;;;5.50;99.90;;;;;;5048662;28;20109;-59
2023/11/18 06:55:26;;;;;;;70.25;24.13;;;5.50;99.90;;;;;;5042856;28;20041;-58
2023/11/18 06:57:52;;;;;;;70.90;26.38;;;5.50;99.90;;;;;;5046881;28;20028;-60
2023/11/18 07:00:18;;;;;;;65.85;24.35;;;5.40;99.90;;;;;;5046899;28;20084;-58
2023/11/18 07:02:43;;;;;;;79.05;24.38;;;5.40;99.90;;;;;;5047351;28;20028;-61
2023/11/18 07:05:09;;;;;;;69.47;24.77;;;5.50;99.90;;;;;;5049856;28;20032;-59
2023/11/18 07:07:35;;;;;;;72.13;25.50;;;5.50;99.90;;;;;;5043297;28;20079;-59
2023/11/18 07:10:00;;;;;;;73.85;26.38;;;5.50;99.90;;;;;;5045543;28;20030;-58
2023/11/18 07:12:26;;;;;;;63.30;23.10;;;5.60;99.90;;;;;;5046940;28;20036;-58
2023/11/18 07:14:53;;;;;;;68.95;24.20;;;5.50;99.90;;;;;;5047639;28;20022;-58
2023/11/18 07:17:19;;;;;;;61.28;23.02;;;5.60;99.90;;;;;;5044139;28;20024;-57
2023/11/18 07:19:45;;;;;;;61.97;24.88;;;5.60;99.90;;;;;;5044016;28;20445;-59
2023/11/18 07:22:10;;;;;;;66.43;25.20;;;5.60;99.90;;;;;;5048818;28;20036;-57
2023/11/18 07:24:37;;;;;;;61.90;23.88;;;5.50;99.90;;;;;;5044199;28;20102;-60
2023/11/18 07:27:05;;;;;;;60.30;22.20;;;5.60;99.90;;;;;;5052238;28;20033;-58
2023/11/18 07:29:32;;;;;;;69.40;25.98;;;5.60;99.90;;;;;;5052105;28;20039;-58
2023/11/18 07:31:57;;;;;;;63.05;23.05;;;5.70;99.90;;;;;;5048307;28;20022;-58
2023/11/18 07:34:23;;;;;;;59.70;22.35;;;5.70;99.90;;;;;;5048466;28;20037;-59
2023/11/18 07:36:49;;;;;;;71.90;24.40;;;5.80;99.90;;;;;;5054232;28;20031;-58
2023/11/18 07:39:15;;;;;;;64.65;20.70;;;5.70;99.90;;;;;;5050490;28;20040;-60
2023/11/18 07:41:41;;;;;;;69.22;23.67;;;5.80;99.90;;;;;;5047516;28;20032;-59
2023/11/18 07:44:10;;;;;;;67.78;22.45;;;5.80;99.90;;;;;;5044255;28;20107;-60
2023/11/18 07:46:38;;;;;;;69.32;21.30;;;5.80;99.90;;;;;;5047153;28;20075;-57
2023/11/18 07:49:04;;;;;;;70.47;23.15;;;5.90;99.90;;;;;;5046015;28;20483;-55
2023/11/18 07:51:30;;;;;;;60.97;22.10;;;5.90;99.90;;;;;;5047530;28;20029;-61
2023/11/18 07:53:55;;;;;;;50.70;21.25;;;5.90;99.90;;;;;;5050084;28;20032;-60
2023/11/18 07:56:24;;;;;;;65.78;22.52;;;6.00;99.90;;;;;;5045497;28;20601;-58
2023/11/18 07:58:50;;;;;;;69.13;22.65;;;6.00;99.90;;;;;;5048325;28;20052;-57
2023/11/18 08:01:16;;;;;;;62.75;22.83;;;6.10;99.90;;;;;;5040800;28;20028;-59
2023/11/18 08:03:43;;;;;;;59.42;22.42;;;6.10;99.90;;;;;;5049001;28;20120;-59
2023/11/18 08:06:10;;;;;;;64.95;23.05;;;6.10;99.90;;;;;;5049918;28;20033;-59
2023/11/18 08:08:37;;;;;;;63.58;22.45;;;6.20;99.90;;;;;;5048586;28;20033;-58
2023/11/18 08:11:04;;;;;;;58.15;22.10;;;6.20;99.90;;;;;;5044839;28;20052;-60
2023/11/18 08:13:30;;;;;;;53.35;21.58;;;6.20;99.90;;;;;;5045317;28;20026;-59
2023/11/18 08:15:57;;;;;;;57.47;21.60;;;6.30;99.90;;;;;;5046470;28;20449;-58
2023/11/18 08:18:24;;;;;;;58.65;22.48;;;6.30;99.90;;;;;;5043456;28;20376;-59
2023/11/18 08:20:50;;;;;;;55.67;21.88;;;6.30;99.90;;;;;;5047368;28;20403;-61
2023/11/18 08:23:16;;;;;;;54.28;20.85;;;6.40;99.90;;;;;;5049927;28;20487;-61
2023/11/18 08:25:41;;;;;;;61.60;23.25;;;6.40;99.90;;;;;;5048001;28;20033;-58
2023/11/18 08:28:08;;;;;;;56.67;22.25;;;6.40;99.90;;;;;;5047307;28;20064;-59
2023/11/18 08:30:34;;;;;;;60.78;21.45;;;6.40;99.90;;;;;;5045124;28;20566;-60
2023/11/18 08:33:00;;;;;;;62.75;22.98;;;6.50;99.90;;;;;;5047405;28;20096;-58
2023/11/18 08:35:25;;;;;;;69.07;23.00;;;6.60;99.90;;;;;;5047188;28;20021;-58
2023/11/18 08:37:52;;;;;;;63.50;23.55;;;6.60;99.90;;;;;;5042278;28;20025;-59
2023/11/18 08:40:21;;;;;;;53.80;21.48;;;6.60;99.90;;;;;;5049015;28;20081;-59
2023/11/18 08:42:53;;;;;;;91.03;21.00;;;6.70;99.90;;;;;;5049509;28;20028;-59
2023/11/18 08:45:27;;;;;;;63.20;22.23;;;6.70;99.90;;;;;;5046325;28;20021;-60
2023/11/18 08:47:53;;;;;;;53.92;21.30;;;6.80;99.90;;;;;;5041066;28;20034;-57
2023/11/18 08:50:19;;;;;;;63.40;22.58;;;6.80;99.90;;;;;;5048318;28;20499;-55
2023/11/18 08:52:46;;;;;;;53.80;20.90;;;6.70;99.90;;;;;;5044725;28;20039;-60
2023/11/18 08:55:25;;;;;;;50.03;21.45;;;6.80;99.90;;;;;;5046838;28;20086;-60
2023/11/18 08:58:03;;;;;;;51.92;19.25;;;6.80;99.90;;;;;;5049357;28;20037;-60
2023/11/18 09:03:08;;;;;;;45.28;19.88;;;6.80;99.90;;;;;;5046335;28;20357;-61
2023/11/18 09:05:35;;;;;;;54.67;20.52;;;6.90;99.90;;;;;;5044446;28;20108;-56
2023/11/18 09:08:05;;;;;;;49.53;21.02;;;6.90;99.90;;;;;;5039771;28;20029;-57
2023/11/18 09:10:32;;;;;;;43.58;19.02;;;6.90;99.90;;;;;;5047902;28;20041;-60
2023/11/18 09:12:57;;;;;;;58.90;20.90;;;6.90;99.90;;;;;;5045676;28;20025;-57
2023/11/18 09:15:23;;;;;;;51.13;20.23;;;7.00;99.90;;;;;;5045804;28;20119;-56
2023/11/18 09:17:49;;;;;;;40.85;18.48;;;7.10;99.90;;;;;;5042925;28;20033;-60
2023/11/18 09:20:22;;;;;;;47.50;20.60;;;7.00;99.90;;;;;;5045273;28;20029;-60
2023/11/18 09:22:53;;;;;;;50.08;19.15;;;7.10;99.90;;;;;;5045223;28;20040;-60
2023/11/18 09:25:22;;;;;;;51.85;20.08;;;7.10;99.90;;;;;;5042397;28;20033;-61
2023/11/18 09:27:48;;;;;;;46.20;18.98;;;7.20;99.90;;;;;;5045232;28;20509;-60
2023/11/18 09:30:14;;;;;;;47.00;20.08;;;7.10;99.90;;;;;;5039435;28;20033;-61
2023/11/18 09:32:43;;;;;;;45.70;18.92;;;7.20;99.90;;;;;;5045607;28;20040;-60
2023/11/18 09:35:09;;;;;;;49.05;19.58;;;7.20;99.90;;;;;;5044037;28;20467;-62
2023/11/18 09:37:36;;;;;;;38.08;18.27;;;7.20;99.90;;;;;;5043220;28;20029;-60
2023/11/18 09:40:11;;;;;;;37.72;17.05;;;7.20;99.90;;;;;;5040704;28;20576;-57
2023/11/18 09:42:38;;;;;;;43.70;16.70;;;7.20;99.90;;;;;;5041436;28;20112;-61
2023/11/18 09:45:05;;;;;;;44.72;17.35;;;7.20;99.90;;;;;;5043553;28;20100;-59
2023/11/18 09:47:37;;;;;;;42.25;17.10;;;7.20;99.90;;;;;;5046321;28;20451;-62
2023/11/18 09:50:08;;;;;;;38.38;19.20;;;7.30;99.90;;;;;;5038809;28;20085;-61
2023/11/18 09:52:38;;;;;;;41.70;17.20;;;7.40;99.90;;;;;;5044563;28;20048;-60
2023/11/18 09:55:14;;;;;;;74.95;20.65;;;7.40;99.90;;;;;;5037413;28;20112;-58
2023/11/18 09:57:44;;;;;;;40.05;18.20;;;7.50;99.90;;;;;;5043116;28;20052;-58
2023/11/18 10:00:32;;;;;;;42.03;17.85;;;7.50;99.90;;;;;;5042966;28;20028;-60
2023/11/18 10:03:00;;;;;;;43.47;16.77;;;7.60;99.90;;;;;;5042126;28;20089;-61
2023/11/18 10:05:26;;;;;;;43.10;18.83;;;7.60;99.90;;;;;;5045985;28;20029;-58
2023/11/18 10:07:53;;;;;;;37.95;15.77;;;7.70;99.90;;;;;;5046064;28;20074;-60
2023/11/18 10:10:20;;;;;;;43.17;16.73;;;7.70;99.90;;;;;;5042845;28;20028;-60
2023/11/18 10:12:53;;;;;;;41.63;15.85;;;7.70;99.90;;;;;;5046794;28;20379;-59
2023/11/18 10:15:23;;;;;;;33.08;16.50;;;7.80;99.90;;;;;;5044285;28;20554;-61
2023/11/18 10:17:59;;;;;;;40.28;17.23;;;7.80;99.90;;;;;;5037128;28;20122;-62
2023/11/18 10:20:47;;;;;;;37.53;16.75;;;7.70;99.90;;;;;;5042809;28;20486;-56
2023/11/18 10:23:19;;;;;;;35.25;15.52;;;7.80;99.90;;;;;;5044239;28;20032;-57
2023/11/18 10:26:00;;;;;;;36.60;16.10;;;7.90;99.90;;;;;;5045075;28;20025;-59
2023/11/18 10:28:27;;;;;;;43.33;15.05;;;7.80;99.90;;;;;;5044671;28;20040;-59
2023/11/18 10:30:57;;;;;;;35.55;14.48;;;7.80;99.90;;;;;;5042070;28;20021;-58
2023/11/18 10:33:30;;;;;;;32.72;14.75;;;7.90;99.90;;;;;;5045367;28;20029;-59
2023/11/18 10:35:56;;;;;;;30.13;13.85;;;7.90;99.90;;;;;;5039946;28;20535;-60
2023/11/18 10:38:25;;;;;;;28.80;14.57;;;7.90;99.90;;;;;;5045768;28;20068;-60
2023/11/18 10:40:55;;;;;;;37.53;14.02;;;7.80;99.90;;;;;;5046374;28;20033;-60
2023/11/18 10:43:24;;;;;;;31.58;13.95;;;7.80;99.90;;;;;;5042313;28;20467;-59
2023/11/18 10:45:51;;;;;;;31.58;14.52;;;7.90;99.90;;;;;;5046150;28;20072;-58
2023/11/18 10:48:20;;;;;;;27.00;13.40;;;7.90;99.90;;;;;;5042962;28;20021;-60
2023/11/18 10:50:49;;;;;;;25.75;14.10;;;7.90;99.90;;;;;;5048766;28;20086;-61
2023/11/18 10:53:18;;;;;;;33.00;12.68;;;7.90;99.90;;;;;;5044548;28;20024;-61
2023/11/18 10:55:43;;;;;;;28.92;13.38;;;8.00;99.90;;;;;;5042815;28;20058;-61
2023/11/18 10:58:09;;;;;;;26.77;12.77;;;8.00;99.90;;;;;;5044376;28;20067;-61
2023/11/18 11:00:53;;;;;;;31.88;14.25;;;8.00;99.90;;;;;;5046227;28;20037;-60
2023/11/18 11:03:19;;;;;;;29.97;12.23;;;8.10;99.90;;;;;;5048087;28;20025;-61
2023/11/18 11:05:45;;;;;;;27.30;12.73;;;8.10;99.90;;;;;;5050542;28;20021;-61
2023/11/18 11:08:17;;;;;;;28.92;11.88;;;8.10;99.90;;;;;;5048479;28;20037;-59
2023/11/18 11:10:43;;;;;;;24.13;12.93;;;8.00;99.90;;;;;;5045973;28;20113;-58
2023/11/18 11:13:11;;;;;;;21.90;12.52;;;8.00;99.90;;;;;;5049061;28;20017;-60
2023/11/18 11:15:43;;;;;;;25.90;11.73;;;8.00;99.90;;;;;;5043790;28;20032;-59
2023/11/18 11:18:15;;;;;;;21.48;11.10;;;8.00;99.90;;;;;;5044116;28;20017;-61
2023/11/18 11:21:07;;;;;;;27.05;11.70;;;8.10;99.90;;;;;;5045026;28;20490;-60
2023/11/18 11:23:49;;;;;;;25.08;11.40;;;8.10;99.90;;;;;;5043686;28;20037;-61
2023/11/18 11:26:51;;;;;;;27.33;13.32;;;8.10;99.90;;;;;;5045541;28;20024;-60
2023/11/18 11:29:42;;;;;;;25.50;11.93;;;8.10;99.90;;;;;;5049268;28;20036;-60
2023/11/18 11:32:12;;;;;;;26.35;12.93;;;8.10;99.90;;;;;;5045588;28;20024;-61
2023/11/18 11:34:45;;;;;;;21.15;12.23;;;8.10;99.90;;;;;;5047046;28;20041;-63
2023/11/18 11:37:11;;;;;;;27.10;12.68;;;8.20;99.90;;;;;;5046318;28;20086;-61
2023/11/18 11:39:37;;;;;;;24.52;12.00;;;8.20;99.90;;;;;;5046587;28;20029;-60
2023/11/18 11:42:09;;;;;;;37.63;13.65;;;8.20;99.90;;;;;;5050066;28;20376;-61
2023/11/18 11:44:42;;;;;;;29.17;13.25;;;8.30;99.90;;;;;;5042869;28;20040;-62
2023/11/18 11:47:08;;;;;;;29.88;12.18;;;8.30;99.90;;;;;;5044540;28;20033;-62
2023/11/18 11:49:47;;;;;;;28.25;12.20;;;8.30;99.90;;;;;;5038758;28;21050;-56
2023/11/18 11:52:28;;;;;;;24.45;11.88;;;8.40;99.90;;;;;;5045774;28;20082;-59
2023/11/18 11:55:12;;;;;;;25.90;10.50;;;8.30;99.90;;;;;;5051471;28;20032;-58
2023/11/18 11:57:39;;;;;;;30.08;10.88;;;8.30;99.90;;;;;;5039335;28;20443;-55
2023/11/18 12:00:14;;;;;;;26.23;11.07;;;8.40;99.90;;;;;;5039110;28;20075;-57
2023/11/18 12:02:48;;;;;;;20.52;10.40;;;8.40;99.90;;;;;;5040998;28;20115;-57
2023/11/18 12:05:19;;;;;;;26.48;11.05;;;8.40;99.90;;;;;;5045954;28;20625;-54
2023/11/18 12:07:46;;;;;;;41.50;10.20;;;8.40;99.90;;;;;;5040106;28;20037;-55
2023/11/18 12:10:13;;;;;;;17.35;9.55;;;8.50;99.90;;;;;;5047477;28;20021;-54
2023/11/18 12:12:42;;;;;;;28.15;9.45;;;8.50;99.90;;;;;;5043400;28;20021;-54
2023/11/18 12:15:17;;;;;;;18.05;8.80;;;8.50;99.90;;;;;;5047953;28;20049;-59
2023/11/18 12:17:55;;;;;;;24.48;8.40;;;8.40;99.90;;;;;;5044317;28;20099;-58
2023/11/18 12:20:42;;;;;;;23.23;8.48;;;8.40;99.90;;;;;;5042454;28;20588;-56
2023/11/18 12:23:14;;;;;;;19.95;9.10;;;8.40;99.90;;;;;;5041260;28;20028;-59
2023/11/18 12:25:41;;;;;;;21.00;9.35;;;8.40;99.90;;;;;;5046402;28;20829;-56
2023/11/18 12:28:08;;;;;;;21.88;8.73;;;8.50;99.90;;;;;;5046480;28;20033;-57
2023/11/18 12:30:36;;;;;;;22.95;9.40;;;8.50;99.90;;;;;;5038837;28;20501;-59
2023/11/18 12:33:08;;;;;;;20.02;8.27;;;8.50;99.90;;;;;;5043215;28;20017;-57
2023/11/18 12:35:52;;;;;;;17.73;8.82;;;8.50;99.90;;;;;;5043914;28;20160;-59
2023/11/18 12:39:18;;;;;;;37.92;9.68;;;8.50;99.90;;;;;;5046177;28;20037;-60
2023/11/18 12:41:55;;;;;;;16.07;8.90;;;8.50;99.90;;;;;;5045648;28;20518;-57
2023/11/18 12:44:31;;;;;;;22.45;9.20;;;8.50;99.90;;;;;;5042966;28;20291;-57